Terminal Aerodrome Forecast
Issued by NWS Paducah, KY

Home | Current Version | Previous Version | Text Only | Print | Product List | Glossary On
Versions: 1 2 3 4 5 6 7 8 9 10 11 12 13 14 15 16 17 18
539
FTUS43 KPAH 182343
TAFPAH
TAF
KPAH 182343Z 1900/1924 22005KT 5SM BR VCSH SCT015 BKN030
      TEMPO 1900/1904 2SM -SHRA BR
     FM190400 22003KT 3SM BR SCT008 BKN015
      TEMPO 1906/1910 1SM BR BKN008
     FM191000 00000KT 1SM BR OVC005
      TEMPO 1910/1913 3/4SM BR BKN001
     FM191400 19005KT P6SM SCT025
     FM191800 16005KT P6SM SCT250=

USA.gov is the U.S. government's official web portal to all federal, state and local government web resources and services.